Notice: Undefined index: language in /home/u110864294/public_html/vam/index.php on line 26
Air Comet Virtual

 METAR AND TAF INFORMATION
METAR FOR LFKC
ADDS - METARS form results

(1847 UTC 22 October 2018)
Data provider http://aviationweather.gov/metar/data/
 
METAR text: LFKC 221830Z AUTO 04005KT CAVOK 15/07 Q1019 NOSIG
Conditions at: LFKC (CALVI/ST. CATHER, FR) observed 1830 UTC 22 October 2018
Temperature: 15.0°C (59°F)
Dewpoint: 7.0°C (45°F) [RH = 59%]
Pressure (altimeter): 30.09 inches Hg (1019.0 mb)
Winds: from the NE (40 degrees) at 6 MPH (5 knots; 2.6 m/s)
Visibility: 6 or more miles (10+ km)
Ceiling: ceiling and visibility are OK
Clouds: unknown
Weather: no significant weather observed at this time

METAR text: LFKC 221800Z AUTO 04006KT CAVOK 15/07 Q1019 NOSIG
Conditions at: LFKC (CALVI/ST. CATHER, FR) observed 1800 UTC 22 October 2018
Temperature: 15.0°C (59°F)
Dewpoint: 7.0°C (45°F) [RH = 59%]
Pressure (altimeter): 30.09 inches Hg (1019.0 mb)
Winds: from the NE (40 degrees) at 7 MPH (6 knots; 3.1 m/s)
Visibility: 6 or more miles (10+ km)
Ceiling: ceiling and visibility are OK
Clouds: unknown
Weather: no significant weather observed at this time

Forecast for: LFKC (CALVI/ST. CATHER, FR)
Text: TAF LFKC 221400Z 2215/2315 36010KT CAVOK TX22/2312Z TN11/2304Z
Forecast period: 1500 UTC 22 October 2018 to 1500 UTC 23 October 2018
Forecast type: FROM: standard forecast or significant change
Winds: from the N (360 degrees) at 12 MPH (10 knots; 5.1 m/s)
Visibility: 6 or more miles 10+ km)
Ceiling: unknown
Clouds: missing
Weather: no significant weather forecast for this period

 AIRPORT MAP

 RUNWAY INFORMATION
Runway 18 Runway length 7579 ft Runway width 131 ft
Runway elevation 63 ft Runway displaced threshold 0 ft Runway heading 179
Runway 36 Runway length 7579 ft Runway width 131 ft
Runway elevation 198 ft Runway displaced threshold 656 ft Runway heading 359

 AIRPORT FREQUENCIES
Type ATIS Name CALVI ATIS Frequency 131.175 MHZ
Type GND Name CALVI GND Frequency 121.7 MHZ
Type TWR Name CALVI TWR Frequency 120.8 MHZ

 AIRPORT NEAR NAVIGATION AIDS
Type NDB Name Calvi Frequency 375 KHZ



Powered by Virtual Airlines Manager [v2.6.2]